Asheville, North Carolina
Current Conditions -  °F | °C
As of 6:02 PM on Saturday 20 Dec 2014 (Local Time) from KAVL Reporting Station
Overcast Overcast  
Wind Chill:   Ceiling: 1400
Heat Index:   Visibility: 10mi
Dew Point:   Wind: 7mph
Humidity: 86%   Direction: 170°S
Pressure: 30.17"   Gusts: NA
Location:  35.6°N, 82.55°W
Report Text: KAVL 202302Z 17006KT 10SM OVC014 05/03 A3017 RMK AO2 T00500028
Loading
Personal Weather Stations






























Interactive Weather Map New forecast layout! Learn more

10-Day Weather Forecast

Advertisements
Track Severe Weather on mobile